Time;durP1;ratioP1;P1;durP2;ratioP2;P2;SDS_P1;SDS_P2;PMS_P1;PMS_P2;Temp;Humidity;BMP_temperature;BMP_pressure;BME280_temperature;BME280_humidity;BME280_pressure;Samples;Min_cycle;Max_cycle;Signal;HPM_P1;HPM_P2
2022/07/10 00:01:05;;;;;;;9.88;6.20;;;;;;;16.80;80.85;98911.92;1645767;87;21034;-92
2022/07/10 00:03:32;;;;;;;10.28;5.67;;;;;;;16.79;81.70;98909.38;1646153;87;21012;-92
2022/07/10 00:05:58;;;;;;;8.60;5.90;;;;;;;16.78;82.25;98906.38;1651393;86;21061;-92
2022/07/10 00:08:25;;;;;;;7.62;5.45;;;;;;;16.79;81.85;98905.44;1660774;86;21010;-92
2022/07/10 00:10:52;;;;;;;7.72;5.60;;;;;;;16.78;82.30;98903.75;1658510;86;21590;-92
2022/07/10 00:13:19;;;;;;;8.80;5.50;;;;;;;16.78;82.26;98909.00;1636882;87;21031;-91
2022/07/10 00:15:45;;;;;;;10.32;5.22;;;;;;;16.76;82.30;98910.39;1587087;90;21055;-92
2022/07/10 00:18:12;;;;;;;8.98;5.70;;;;;;;16.73;82.46;98904.45;1628250;87;20993;-92
2022/07/10 00:20:40;;;;;;;8.93;5.30;;;;;;;16.75;82.46;98902.15;1648767;87;21037;-92
2022/07/10 00:23:06;;;;;;;8.20;5.60;;;;;;;16.78;82.27;98899.34;1644676;87;20997;-92
2022/07/10 00:25:33;;;;;;;7.65;5.35;;;;;;;16.79;82.01;98903.68;1648877;87;21077;-92
2022/07/10 00:28:00;;;;;;;10.43;5.90;;;;;;;16.77;83.14;98898.11;1648696;87;21009;-91
2022/07/10 00:30:27;;;;;;;9.00;5.87;;;;;;;16.73;82.63;98901.35;1648841;87;21592;-91
2022/07/10 00:32:55;;;;;;;8.08;5.72;;;;;;;16.73;82.56;98897.41;1629085;87;21005;-91
2022/07/10 00:35:21;;;;;;;7.65;5.62;;;;;;;16.76;82.89;98892.48;1622264;88;21076;-92
2022/07/10 00:37:48;;;;;;;13.60;6.00;;;;;;;16.78;83.07;98891.94;1621734;88;21049;-93
2022/07/10 00:40:15;;;;;;;8.50;5.72;;;;;;;16.79;82.94;98886.61;1623437;87;21026;-91
2022/07/10 00:42:42;;;;;;;7.12;4.92;;;;;;;16.81;82.60;98889.13;1648729;83;21101;-91
2022/07/10 00:45:10;;;;;;;10.30;5.47;;;;;;;16.80;82.38;98884.36;1722361;80;20992;-90
2022/07/10 00:47:37;;;;;;;10.35;5.85;;;;;;;16.77;82.42;98884.53;1669857;81;20952;-92
2022/07/10 00:50:06;;;;;;;9.55;6.83;;;;;;;16.76;82.78;98896.42;1643900;83;21026;-91
2022/07/10 00:52:38;;;;;;;8.98;5.25;;;;;;;16.71;82.02;98896.66;1659988;83;21507;-93
2022/07/10 00:55:05;;;;;;;8.10;5.53;;;;;;;16.70;82.67;98894.97;1659684;86;20951;-94
2022/07/10 00:57:33;;;;;;;8.13;5.87;;;;;;;16.70;83.16;98890.56;1659729;86;20988;-93
2022/07/10 01:00:00;;;;;;;8.45;5.25;;;;;;;16.67;82.48;98891.19;1661632;86;20983;-92
2022/07/10 01:02:27;;;;;;;7.97;5.40;;;;;;;16.63;82.19;98895.77;1662336;86;21447;-92
2022/07/10 01:04:57;;;;;;;7.30;5.17;;;;;;;16.58;82.13;98882.03;1661152;86;21015;-92
2022/07/10 01:07:25;;;;;;;10.08;6.15;;;;;;;16.55;81.80;98886.59;1633476;88;21030;-91
2022/07/10 01:09:51;;;;;;;10.00;6.42;;;;;;;16.50;81.81;98884.22;1633824;88;21027;-91
2022/07/10 01:12:18;;;;;;;10.50;6.10;;;;;;;16.45;82.31;98875.73;1643879;86;20989;-94
2022/07/10 01:14:45;;;;;;;11.15;6.30;;;;;;;16.41;82.17;98872.45;1650230;86;20980;-93
2022/07/10 01:17:14;;;;;;;11.85;6.10;;;;;;;16.37;82.30;98869.56;1720291;83;21049;-92
2022/07/10 01:19:40;;;;;;;10.98;6.15;;;;;;;16.28;83.30;98863.52;1721791;83;21447;-92
2022/07/10 01:22:07;;;;;;;8.25;6.03;;;;;;;16.26;82.90;98862.75;1719999;83;20968;-92
2022/07/10 01:24:34;;;;;;;10.50;6.33;;;;;;;16.22;82.90;98848.94;1665082;85;20999;-92
2022/07/10 01:27:02;;;;;;;8.43;6.05;;;;;;;16.20;82.61;98855.20;1639889;87;21039;-93
2022/07/10 01:29:29;;;;;;;10.03;5.28;;;;;;;16.15;84.10;98845.40;1657880;86;20996;-92
2022/07/10 01:31:56;;;;;;;8.05;5.30;;;;;;;16.06;83.47;98846.27;1668321;86;20992;-94
2022/07/10 01:34:23;;;;;;;8.98;5.10;;;;;;;16.01;83.14;98844.80;1639840;87;21006;-93
2022/07/10 01:36:50;;;;;;;7.22;4.85;;;;;;;15.93;82.32;98843.88;1658369;86;20968;-93
2022/07/10 01:39:17;;;;;;;7.37;5.53;;;;;;;15.85;83.45;98832.94;1659326;86;20991;-92
2022/07/10 01:41:44;;;;;;;10.80;5.83;;;;;;;15.79;83.07;98832.77;1659159;86;21009;-92
2022/07/10 01:44:10;;;;;;;9.05;6.00;;;;;;;15.74;85.03;98826.94;1670930;84;21036;-91
2022/07/10 01:46:46;;;;;;;11.68;5.80;;;;;;;15.70;84.55;98823.59;1658250;87;21027;-92
2022/07/10 01:49:13;;;;;;;11.97;5.62;;;;;;;15.66;83.68;98827.29;1672519;84;21036;-93
2022/07/10 01:51:40;;;;;;;8.25;5.40;;;;;;;15.60;83.52;98823.67;1658006;87;21007;-91
2022/07/10 01:54:07;;;;;;;8.63;5.42;;;;;;;15.53;83.59;98821.42;1672866;86;20991;-92
2022/07/10 01:56:34;;;;;;;13.53;5.47;;;;;;;15.50;84.62;98820.66;1658013;86;21042;-92
2022/07/10 01:59:03;;;;;;;8.95;6.17;;;;;;;15.47;84.71;98829.12;1672781;86;20972;-93
2022/07/10 02:01:30;;;;;;;9.08;5.45;;;;;;;15.42;85.35;98824.12;1658062;87;21051;-92
2022/07/10 02:06:42;;;;;;;10.43;5.58;;;;;;;15.35;84.96;98815.32;1717156;84;20999;-94
2022/07/10 02:09:09;;;;;;;10.23;5.97;;;;;;;15.36;84.47;98812.63;1717210;84;20988;-92
2022/07/10 02:11:36;;;;;;;17.02;6.65;;;;;;;15.35;85.27;98807.47;1692432;84;21070;-91
2022/07/10 02:14:03;;;;;;;12.82;6.70;;;;;;;15.33;85.08;98804.91;1659651;86;21012;-94
2022/07/10 02:16:30;;;;;;;13.83;6.65;;;;;;;15.31;86.23;98804.98;1659349;86;21003;-92
2022/07/10 02:18:57;;;;;;;12.60;5.65;;;;;;;15.31;86.76;98810.69;1659501;86;20960;-92
2022/07/10 02:21:23;;;;;;;11.43;6.95;;;;;;;15.34;86.17;98804.00;1658302;86;20976;-94
2022/07/10 02:23:50;;;;;;;11.12;6.78;;;;;;;15.36;87.98;98801.28;1670693;85;20959;-92
2022/07/10 02:26:17;;;;;;;9.95;7.08;;;;;;;15.36;87.38;98799.54;1674245;84;21027;-92
2022/07/10 02:28:44;;;;;;;11.57;8.15;;;;;;;15.40;86.65;98797.59;1659357;86;20952;-89
2022/07/10 02:31:10;;;;;;;12.40;6.47;;;;;;;15.41;86.24;98798.83;1660021;86;21016;-90
2022/07/10 02:33:37;;;;;;;12.10;6.33;;;;;;;15.43;86.74;98808.77;1660418;86;20960;-93
2022/07/10 02:36:05;;;;;;;12.37;6.60;;;;;;;15.38;88.70;98807.30;1660228;86;21531;-92
2022/07/10 02:38:32;;;;;;;11.40;5.78;;;;;;;15.37;87.29;98809.55;1658660;86;21487;-92
2022/07/10 02:40:59;;;;;;;8.08;5.33;;;;;;;15.37;87.17;98812.16;1672117;86;21019;-91
2022/07/10 02:43:26;;;;;;;7.95;5.53;;;;;;;15.37;86.50;98813.00;1660007;86;21123;-93
2022/07/10 02:45:53;;;;;;;11.95;5.60;;;;;;;15.38;86.58;98823.02;1660677;86;21003;-94
2022/07/10 02:48:20;;;;;;;10.72;6.00;;;;;;;15.40;86.78;98821.16;1660790;86;20983;-93
2022/07/10 02:50:46;;;;;;;7.17;5.42;;;;;;;15.43;87.05;98819.72;1656504;86;21007;-92
2022/07/10 02:53:13;;;;;;;9.13;5.37;;;;;;;15.45;86.03;98816.09;1679023;85;21016;-93
2022/07/10 02:55:40;;;;;;;9.78;5.75;;;;;;;15.48;87.03;98816.42;1692421;83;21010;-92
2022/07/10 02:58:09;;;;;;;8.38;5.65;;;;;;;15.53;86.53;98818.33;1723878;83;21049;-93
2022/07/10 03:00:36;;;;;;;12.95;6.37;;;;;;;15.58;85.98;98816.34;1724079;83;21029;-92
2022/07/10 03:03:03;;;;;;;9.30;5.58;;;;;;;15.64;85.88;98815.20;1724092;83;21003;-92
2022/07/10 03:05:30;;;;;;;9.20;5.72;;;;;;;15.65;85.96;98816.41;1705984;82;20979;-93
2022/07/10 03:07:56;;;;;;;11.48;5.87;;;;;;;15.64;87.85;98816.03;1738983;82;21030;-92
2022/07/10 03:10:23;;;;;;;8.28;5.67;;;;;;;15.66;87.00;98821.20;1737445;82;21518;-92
2022/07/10 03:12:50;;;;;;;11.65;6.12;;;;;;;15.69;86.77;98817.11;1683447;85;20993;-93
2022/07/10 03:15:16;;;;;;;10.25;6.37;;;;;;;15.71;86.95;98812.63;1653803;86;21522;-92
2022/07/10 03:17:44;;;;;;;10.30;6.37;;;;;;;15.76;87.12;98813.29;1705293;83;21046;-92
2022/07/10 03:20:11;;;;;;;11.35;6.53;;;;;;;15.80;85.98;98811.37;1695211;84;21042;-93
2022/07/10 03:22:38;;;;;;;10.15;5.92;;;;;;;15.81;86.11;98807.80;1695228;84;21034;-93
2022/07/10 03:25:06;;;;;;;8.10;5.40;;;;;;;15.82;86.13;98801.66;1695120;85;21055;-94
2022/07/10 03:27:32;;;;;;;12.80;5.80;;;;;;;15.85;86.09;98798.39;1695247;84;20998;-93
2022/07/10 03:29:59;;;;;;;11.12;6.10;;;;;;;15.90;85.69;98804.72;1695228;85;21046;-94
2022/07/10 03:32:26;;;;;;;7.87;5.17;;;;;;;15.88;87.77;98808.73;1695490;84;20983;-93
2022/07/10 03:34:53;;;;;;;9.73;5.70;;;;;;;15.91;86.47;98803.78;1695255;85;21515;-92
2022/07/10 03:37:20;;;;;;;8.60;6.03;;;;;;;15.94;86.15;98803.64;1695367;84;20994;-94
2022/07/10 03:39:47;;;;;;;11.50;6.22;;;;;;;15.97;86.72;98802.16;1697238;83;21562;-93
2022/07/10 03:42:13;;;;;;;8.15;5.95;;;;;;;16.02;87.13;98798.00;1724068;83;20962;-94
2022/07/10 03:44:40;;;;;;;11.10;5.67;;;;;;;16.07;87.20;98796.80;1721906;81;21010;-93
2022/07/10 03:47:07;;;;;;;8.60;5.90;;;;;;;16.12;86.26;98795.75;1700882;83;21018;-93
2022/07/10 03:49:34;;;;;;;10.05;5.72;;;;;;;16.15;86.07;98800.34;1702721;83;21067;-93
2022/07/10 03:52:02;;;;;;;7.95;5.30;;;;;;;16.21;87.06;98807.05;1721232;83;21480;-93
2022/07/10 03:54:29;;;;;;;11.78;5.65;;;;;;;16.27;86.76;98810.66;1721306;83;21507;-93
2022/07/10 03:59:43;;;;;;;7.10;4.87;;;;;;;16.39;86.78;98811.30;1721057;83;20991;-92
2022/07/10 04:02:09;;;;;;;9.85;5.30;;;;;;;16.48;86.84;98812.14;1721072;83;20979;-93
2022/07/10 04:04:36;;;;;;;8.68;5.47;;;;;;;16.54;86.68;98809.65;1716801;83;20980;-92
2022/07/10 04:07:06;;;;;;;8.63;5.75;;;;;;;16.63;86.79;98805.67;1668470;86;21045;-93
2022/07/10 04:09:33;;;;;;;12.55;5.47;;;;;;;16.75;86.42;98805.47;1643413;87;20983;-93
2022/07/10 04:12:00;;;;;;;7.97;4.95;;;;;;;16.85;86.41;98813.24;1642595;86;20980;-92
2022/07/10 04:14:27;;;;;;;8.08;5.35;;;;;;;16.98;85.86;98805.55;1668762;85;20979;-93
2022/07/10 04:16:54;;;;;;;6.97;4.67;;;;;;;17.07;85.39;98802.42;1669438;86;21021;-92
2022/07/10 04:19:21;;;;;;;10.93;5.42;;;;;;;17.17;85.16;98806.66;1664809;86;21008;-92
2022/07/10 04:21:48;;;;;;;7.80;5.60;;;;;;;17.30;84.66;98800.61;1717096;83;21034;-92
2022/07/10 04:24:14;;;;;;;10.75;6.10;;;;;;;17.37;84.73;98801.12;1720802;83;21030;-92
2022/07/10 04:26:42;;;;;;;8.93;5.08;;;;;;;17.51;84.62;98800.33;1710850;83;21038;-92
2022/07/10 04:29:08;;;;;;;6.42;4.83;;;;;;;17.62;83.78;98801.00;1708805;83;21019;-92
2022/07/10 04:31:35;;;;;;;7.37;5.25;;;;;;;17.67;83.44;98805.06;1714002;83;21006;-92
2022/07/10 04:34:02;;;;;;;8.05;5.28;;;;;;;17.73;82.79;98806.97;1719568;83;21036;-88
2022/07/10 04:36:30;;;;;;;11.95;5.58;;;;;;;17.79;82.75;98806.13;1717982;83;21003;-90
2022/07/10 04:38:57;;;;;;;6.62;4.67;;;;;;;17.89;82.68;98815.66;1719367;82;20946;-91
2022/07/10 04:41:23;;;;;;;7.72;5.10;;;;;;;18.01;82.14;98814.08;1714586;82;20972;-93
2022/07/10 04:43:51;;;;;;;7.33;5.28;;;;;;;18.02;81.89;98810.50;1702543;82;21062;-92
2022/07/10 04:46:17;;;;;;;8.13;4.60;;;;;;;18.08;81.95;98807.05;1719949;83;21008;-92
2022/07/10 04:48:44;;;;;;;7.60;5.28;;;;;;;18.15;81.67;98810.63;1719245;83;21018;-92
2022/07/10 04:51:11;;;;;;;10.18;5.10;;;;;;;18.21;81.46;98807.61;1733680;82;20919;-92
2022/07/10 04:53:38;;;;;;;9.38;5.03;;;;;;;18.32;81.25;98806.47;1723193;82;20956;-92
2022/07/10 04:56:05;;;;;;;6.90;4.80;;;;;;;18.38;81.15;98807.44;1721335;83;21050;-92
2022/07/10 04:58:32;;;;;;;7.83;4.72;;;;;;;18.52;81.42;98804.39;1720630;82;21016;-92
2022/07/10 05:00:59;;;;;;;11.97;5.45;;;;;;;18.66;81.25;98804.36;1720644;83;20999;-89
2022/07/10 05:03:25;;;;;;;6.58;5.03;;;;;;;18.61;80.80;98799.88;1719137;83;20951;-90
2022/07/10 05:05:52;;;;;;;7.55;5.70;;;;;;;18.57;80.64;98807.12;1714606;83;21488;-90
2022/07/10 05:08:19;;;;;;;7.62;5.20;;;;;;;18.63;80.84;98808.52;1710032;83;20975;-89
2022/07/10 05:10:46;;;;;;;10.30;5.70;;;;;;;18.66;80.17;98805.69;1713134;83;20964;-88
2022/07/10 05:13:12;;;;;;;9.60;5.72;;;;;;;18.67;79.89;98806.91;1715007;82;20990;-89
2022/07/10 05:15:39;;;;;;;7.80;5.95;;;;;;;18.70;79.96;98797.96;1714866;83;20959;-91
2022/07/10 05:18:06;;;;;;;10.18;5.70;;;;;;;18.71;79.61;98804.94;1717839;83;21758;-92
2022/07/10 05:20:35;;;;;;;10.25;5.58;;;;;;;18.74;79.33;98798.17;1711876;83;20988;-92
2022/07/10 05:23:02;;;;;;;11.15;5.28;;;;;;;18.71;79.11;98797.03;1711815;82;20980;-91
2022/07/10 05:25:30;;;;;;;11.22;5.80;;;;;;;18.71;78.82;98797.52;1715337;83;20976;-91
2022/07/10 05:27:57;;;;;;;8.95;5.35;;;;;;;18.65;78.77;98800.06;1716168;82;20988;-91
2022/07/10 05:30:24;;;;;;;8.58;5.40;;;;;;;18.67;78.97;98799.48;1715277;83;20983;-89
2022/07/10 05:32:51;;;;;;;11.95;5.70;;;;;;;18.69;78.74;98794.49;1714176;83;20980;-90
2022/07/10 05:35:17;;;;;;;8.45;4.95;;;;;;;18.68;78.51;98794.13;1716973;83;20933;-91
2022/07/10 05:37:44;;;;;;;7.03;5.12;;;;;;;18.68;78.74;98791.95;1716425;83;20991;-91
2022/07/10 05:40:11;;;;;;;10.15;4.80;;;;;;;18.75;79.13;98791.11;1719056;82;20959;-90
2022/07/10 05:42:38;;;;;;;6.45;4.58;;;;;;;18.80;78.77;98799.13;1715155;83;21055;-91
2022/07/10 05:45:06;;;;;;;10.32;4.58;;;;;;;18.87;78.73;98804.84;1717761;82;21039;-89
2022/07/10 05:47:33;;;;;;;8.48;4.55;;;;;;;18.94;78.83;98800.02;1715978;83;20994;-91
2022/07/10 05:50:00;;;;;;;6.22;4.58;;;;;;;18.95;78.44;98806.50;1720860;83;21041;-91
2022/07/10 05:52:27;;;;;;;7.97;5.22;;;;;;;19.03;78.47;98799.44;1721744;82;20975;-91
2022/07/10 05:54:55;;;;;;;6.92;4.70;;;;;;;19.06;78.37;98803.20;1719894;83;20991;-91
2022/07/10 05:57:22;;;;;;;7.03;4.90;;;;;;;19.06;78.61;98800.56;1691640;83;21038;-88
2022/07/10 05:59:48;;;;;;;9.98;4.80;;;;;;;19.11;78.54;98792.36;1713233;80;21101;-88
2022/07/10 06:02:16;;;;;;;5.42;3.30;;;;;;;19.19;78.62;98786.11;1706488;80;21055;-87
2022/07/10 06:04:43;;;;;;;5.55;3.87;;;;;;;19.24;76.62;98791.45;1718482;80;20980;-90
2022/07/10 06:07:09;;;;;;;8.65;3.77;;;;;;;19.25;74.95;98797.56;1717426;83;20956;-89
2022/07/10 06:09:36;;;;;;;5.85;3.33;;;;;;;19.26;75.57;98790.05;1719651;82;20999;-90
2022/07/10 06:12:04;;;;;;;8.35;4.25;;;;;;;19.15;74.17;98794.67;1719381;83;20980;-90
2022/07/10 06:14:30;;;;;;;7.72;3.75;;;;;;;19.08;74.01;98794.72;1720449;83;20997;-89
2022/07/10 06:16:57;;;;;;;5.37;3.27;;;;;;;19.07;73.42;98792.53;1720559;82;21003;-90
2022/07/10 06:19:24;;;;;;;6.80;3.90;;;;;;;19.05;73.45;98786.52;1720312;83;21010;-89
2022/07/10 06:22:30;;;;;;;6.65;3.92;;;;;;;19.01;73.53;98790.78;1702140;83;20986;-91
2022/07/10 06:24:19;;;;;;;10.50;3.75;;;;;;;18.84;73.77;98785.27;1717567;83;21062;-91
2022/07/10 06:26:46;;;;;;;8.05;3.85;;;;;;;18.83;74.22;98790.17;1720387;82;20991;-91
2022/07/10 06:29:13;;;;;;;7.50;3.37;;;;;;;18.90;74.83;98785.35;1720576;83;21008;-91
2022/07/10 06:31:39;;;;;;;6.12;2.95;;;;;;;18.97;74.03;98794.56;1720447;83;21503;-90
2022/07/10 06:34:06;;;;;;;7.17;3.83;;;;;;;19.02;73.05;98792.45;1719642;83;20967;-90
2022/07/10 06:36:33;;;;;;;5.90;3.67;;;;;;;19.07;72.84;98787.75;1719213;83;21026;-90
2022/07/10 06:39:00;;;;;;;6.90;4.60;;;;;;;19.11;72.31;98781.81;1715622;83;21014;-90
2022/07/10 06:41:27;;;;;;;5.75;4.00;;;;;;;19.11;72.40;98789.23;1720380;82;21042;-90
2022/07/10 06:43:53;;;;;;;7.25;4.17;;;;;;;19.16;72.73;98783.21;1711520;83;21578;-91
2022/07/10 06:46:20;;;;;;;6.10;4.50;;;;;;;19.23;72.67;98781.84;1710930;83;21047;-90
2022/07/10 06:48:47;;;;;;;10.48;4.20;;;;;;;19.33;72.93;98786.52;1720346;83;21535;-91
2022/07/10 06:51:14;;;;;;;6.97;4.80;;;;;;;19.39;72.82;98782.16;1720209;82;20978;-90
2022/07/10 06:53:40;;;;;;;6.47;4.70;;;;;;;19.41;72.87;98781.58;1703337;83;20976;-91
2022/07/10 06:56:07;;;;;;;7.58;4.90;;;;;;;19.42;72.83;98784.61;1716213;83;20943;-90
2022/07/10 06:58:34;;;;;;;6.87;4.70;;;;;;;19.52;73.54;98785.67;1720005;83;21054;-91
2022/07/10 07:01:01;;;;;;;6.40;4.55;;;;;;;19.60;73.54;98784.69;1720376;83;21006;-92
2022/07/10 07:03:28;;;;;;;6.83;4.25;;;;;;;19.66;72.97;98782.95;1714029;83;21471;-90
2022/07/10 07:05:54;;;;;;;6.42;3.95;;;;;;;19.72;72.85;98787.48;1714467;83;20987;-90
2022/07/10 07:08:21;;;;;;;6.20;3.52;;;;;;;19.72;71.74;98792.77;1720421;82;21494;-91
2022/07/10 07:10:48;;;;;;;6.10;2.90;;;;;;;19.75;70.67;98792.53;1714215;83;20963;-90
2022/07/10 07:13:14;;;;;;;5.47;2.45;;;;;;;19.75;71.34;98788.58;1720241;83;20995;-90
2022/07/10 07:15:52;;;;;;;6.53;2.20;;;;;;;19.62;62.30;98794.66;1708137;83;20999;-91
2022/07/10 07:18:15;;;;;;;4.75;2.10;;;;;;;19.63;66.32;98787.09;1701529;83;20983;-90
2022/07/10 07:23:27;;;;;;;8.88;2.40;;;;;;;19.61;65.35;98784.20;1702273;83;20971;-90
2022/07/10 07:25:55;;;;;;;5.25;2.20;;;;;;;19.65;65.13;98786.52;1735341;82;20963;-90
2022/07/10 07:28:22;;;;;;;5.90;2.05;;;;;;;19.69;65.62;98792.44;1720332;82;21459;-91
2022/07/10 07:30:49;;;;;;;3.87;1.90;;;;;;;19.75;64.58;98791.22;1718320;83;20960;-91
2022/07/10 07:33:16;;;;;;;5.15;2.08;;;;;;;19.84;65.16;98784.01;1718943;83;21007;-90
2022/07/10 07:35:43;;;;;;;4.03;2.40;;;;;;;19.90;63.94;98791.50;1720265;83;21490;-90
2022/07/10 07:38:10;;;;;;;6.03;2.62;;;;;;;19.96;64.51;98788.92;1709579;83;21011;-91
2022/07/10 07:40:37;;;;;;;4.35;2.47;;;;;;;20.08;64.33;98792.52;1716226;83;21026;-90
2022/07/10 07:43:04;;;;;;;5.12;2.80;;;;;;;20.24;63.92;98794.45;1712475;83;21646;-89
2022/07/10 07:45:31;;;;;;;4.17;2.45;;;;;;;20.39;64.51;98785.92;1720127;81;21023;-91
2022/07/10 07:48:02;;;;;;;8.28;3.08;;;;;;;20.55;64.81;98786.55;1714671;83;21034;-89
2022/07/10 07:50:33;;;;;;;7.70;2.62;;;;;;;20.73;64.54;98785.73;1719861;83;20999;-90
2022/07/10 07:53:03;;;;;;;4.33;2.35;;;;;;;20.90;64.33;98790.27;1720216;83;21059;-89
2022/07/10 07:55:32;;;;;;;6.90;2.75;;;;;;;21.03;62.40;98792.40;1720360;83;20963;-90
2022/07/10 07:57:59;;;;;;;3.47;2.05;;;;;;;21.21;62.69;98783.59;1720313;83;21451;-89
2022/07/10 08:00:28;;;;;;;6.37;2.75;;;;;;;21.39;62.61;98789.31;1709917;83;20983;-90
2022/07/10 08:02:56;;;;;;;6.53;3.37;;;;;;;21.39;60.56;98793.28;1710085;83;20998;-89
2022/07/10 08:05:23;;;;;;;5.90;3.10;;;;;;;21.34;61.09;98791.45;1714807;83;21525;-90
2022/07/10 08:07:57;;;;;;;4.65;2.70;;;;;;;21.34;61.63;98790.95;1720094;83;20983;-90
2022/07/10 08:10:27;;;;;;;6.75;2.62;;;;;;;21.40;60.45;98791.82;1699062;83;20995;-91
2022/07/10 08:12:53;;;;;;;8.15;3.12;;;;;;;21.53;61.43;98793.12;1718836;82;20951;-89
2022/07/10 08:15:22;;;;;;;5.92;2.47;;;;;;;21.63;60.87;98795.43;1720274;83;21003;-90
2022/07/10 08:17:52;;;;;;;5.80;2.70;;;;;;;21.67;59.99;98796.05;1720331;82;21038;-90
2022/07/10 08:20:20;;;;;;;6.05;3.02;;;;;;;21.73;58.27;98795.58;1719839;83;20971;-90
2022/07/10 08:22:48;;;;;;;5.10;3.05;;;;;;;21.81;60.26;98798.97;1717605;83;21038;-88
2022/07/10 08:25:15;;;;;;;5.05;2.50;;;;;;;21.78;59.37;98799.19;1710528;83;21016;-91
2022/07/10 08:27:41;;;;;;;6.00;2.90;;;;;;;21.76;59.06;98798.46;1697572;83;21011;-90
2022/07/10 08:30:10;;;;;;;4.50;2.50;;;;;;;21.78;59.35;98799.19;1659689;86;21000;-91
2022/07/10 08:32:39;;;;;;;4.42;2.30;;;;;;;21.68;58.47;98792.91;1649260;87;21011;-90
2022/07/10 08:35:08;;;;;;;10.72;2.80;;;;;;;21.60;58.03;98799.61;1668275;83;21003;-91
2022/07/10 08:37:41;;;;;;;3.65;2.58;;;;;;;21.52;58.73;98795.38;1654473;87;20970;-89
2022/07/10 08:40:10;;;;;;;6.45;2.52;;;;;;;21.51;58.53;98793.71;1637919;86;21488;-92
2022/07/10 08:42:37;;;;;;;4.45;2.67;;;;;;;21.45;57.71;98792.37;1654065;87;21599;-91
2022/07/10 08:45:06;;;;;;;4.05;2.40;;;;;;;21.42;58.31;98793.88;1641181;86;20991;-89
2022/07/10 08:47:38;;;;;;;4.40;2.52;;;;;;;21.38;57.48;98800.84;1659686;86;21043;-90
2022/07/10 08:50:09;;;;;;;9.38;2.72;;;;;;;21.30;58.02;98789.98;1659503;86;20979;-90
2022/07/10 08:52:53;;;;;;;6.15;2.65;;;;;;;21.30;58.75;98786.02;1665340;86;21004;-90
2022/07/10 08:55:17;;;;;;;8.98;3.10;;;;;;;21.31;59.23;98790.34;1660097;86;21445;-90
2022/07/10 08:57:44;;;;;;;4.55;2.65;;;;;;;21.37;59.53;98801.81;1662578;86;20953;-89
2022/07/10 09:00:11;;;;;;;4.22;2.40;;;;;;;21.38;58.45;98797.70;1658946;86;21022;-91
2022/07/10 09:02:38;;;;;;;5.00;2.25;;;;;;;21.38;57.86;98803.48;1666657;86;20998;-89
2022/07/10 09:05:08;;;;;;;4.08;2.50;;;;;;;21.41;58.10;98796.66;1714597;83;20983;-90
2022/07/10 09:07:38;;;;;;;3.83;2.30;;;;;;;21.34;58.23;98798.89;1703246;83;21002;-90
2022/07/10 09:10:09;;;;;;;7.08;2.27;;;;;;;21.35;57.30;98794.47;1723424;83;21097;-90
2022/07/10 09:12:59;;;;;;;5.17;2.35;;;;;;;21.42;56.84;98797.84;1723088;83;21497;-91
2022/07/10 09:15:32;;;;;;;4.08;2.20;;;;;;;21.48;57.56;98795.25;1722782;83;21510;-90
2022/07/10 09:18:02;;;;;;;6.22;2.55;;;;;;;21.56;55.74;98791.55;1704037;83;20939;-89
2022/07/10 09:20:33;;;;;;;5.20;2.58;;;;;;;21.62;57.08;98787.60;1722108;83;20995;-91
2022/07/10 09:23:18;;;;;;;4.35;2.40;;;;;;;21.68;55.86;98787.63;1707409;83;20999;-91
2022/07/10 09:25:47;;;;;;;5.58;2.60;;;;;;;21.73;55.80;98782.84;1722435;83;21015;-90
2022/07/10 09:28:20;;;;;;;4.53;2.30;;;;;;;21.76;54.95;98782.09;1710316;83;20979;-90
2022/07/10 09:30:47;;;;;;;;;;;;;;;21.77;55.97;98766.61;1725707;83;21154;-90
2022/07/10 09:33:30;;;;;;;4.25;2.50;;;;;;;21.73;55.06;98764.31;1720413;83;20124;-90
2022/07/10 09:36:12;;;;;;;6.95;2.80;;;;;;;21.78;56.22;98753.72;1721834;83;20995;-90
2022/07/10 09:38:57;;;;;;;4.22;2.70;;;;;;;21.88;56.57;98756.50;1723247;83;20982;-90
2022/07/10 09:41:25;;;;;;;6.97;2.80;;;;;;;22.00;56.83;98756.91;1722034;83;21006;-90
2022/07/10 09:44:03;;;;;;;5.25;2.60;;;;;;;22.16;56.59;98765.81;1704160;83;21039;-90
2022/07/10 09:46:42;;;;;;;5.85;2.72;;;;;;;22.19;55.72;98765.56;1725335;83;21471;-90
2022/07/10 09:49:12;;;;;;;6.10;3.02;;;;;;;22.17;55.65;98761.36;1726684;83;20964;-90
2022/07/10 09:51:45;;;;;;;5.55;2.80;;;;;;;22.26;55.75;98763.30;1726782;82;20987;-90
2022/07/10 09:54:12;;;;;;;;;;;;;;;22.29;55.58;98758.26;1729806;83;21007;-88
2022/07/10 09:56:50;;;;;;;4.55;2.60;;;;;;;22.45;55.10;98750.78;1728282;82;20128;-89
2022/07/10 09:59:19;;;;;;;8.00;2.62;;;;;;;22.59;54.08;98752.33;1727374;83;20971;-89
2022/07/10 10:01:52;;;;;;;4.25;2.75;;;;;;;22.80;54.63;98761.20;1671907;86;21492;-88
2022/07/10 10:04:23;;;;;;;5.08;3.00;;;;;;;22.88;53.37;98762.36;1650579;86;21007;-89
2022/07/10 10:07:02;;;;;;;6.90;2.92;;;;;;;23.00;53.56;98760.06;1671389;86;21015;-89
2022/07/10 10:09:41;;;;;;;6.90;2.85;;;;;;;23.17;52.03;98756.05;1648945;86;20997;-90
2022/07/10 10:12:16;;;;;;;5.37;2.60;;;;;;;23.35;53.72;98753.19;1666196;86;20984;-90
2022/07/10 10:14:44;;;;;;;5.47;2.98;;;;;;;23.51;52.27;98754.56;1660525;86;21002;-88
2022/07/10 10:17:12;;;;;;;5.87;2.90;;;;;;;23.58;52.59;98755.73;1655082;86;21040;-91
2022/07/10 10:22:27;;;;;;;4.53;2.70;;;;;;;23.62;50.04;98760.64;1676400;85;21007;-88
2022/07/10 10:24:55;;;;;;;8.33;2.77;;;;;;;23.69;47.45;98756.98;1633202;87;21029;-90
2022/07/10 10:27:23;;;;;;;4.40;2.77;;;;;;;23.60;50.00;98757.28;1685081;85;20993;-90
2022/07/10 10:29:51;;;;;;;9.83;5.00;;;;;;;23.69;49.84;98750.34;1666880;86;21540;-90
2022/07/10 10:32:18;;;;;;;6.08;3.22;;;;;;;23.76;49.12;98750.69;1684104;85;20954;-90
2022/07/10 10:34:57;;;;;;;7.62;2.80;;;;;;;23.94;49.49;98758.92;1666747;86;21500;-90
2022/07/10 10:37:40;;;;;;;4.22;2.10;;;;;;;23.94;49.50;98758.42;1683896;85;20965;-89
2022/07/10 10:40:10;;;;;;;4.35;1.82;;;;;;;24.12;47.73;98761.30;1688312;85;20991;-90
2022/07/10 10:42:43;;;;;;;6.17;2.05;;;;;;;24.23;47.48;98756.38;1675246;85;21638;-89
2022/07/10 10:45:37;;;;;;;3.47;2.00;;;;;;;24.32;47.42;98760.90;1671921;86;21071;-90
2022/07/10 10:48:10;;;;;;;5.08;2.22;;;;;;;24.37;44.39;98748.53;1674886;85;21023;-89
2022/07/10 10:50:42;;;;;;;4.92;1.80;;;;;;;24.32;46.63;98750.27;1659998;85;21014;-90
2022/07/10 10:53:17;;;;;;;3.60;1.98;;;;;;;24.30;46.07;98750.90;1735040;83;21006;-88
2022/07/10 10:56:07;;;;;;;3.80;2.10;;;;;;;24.16;44.98;98749.44;1652041;86;20998;-89
2022/07/10 10:58:45;;;;;;;2.80;1.95;;;;;;;24.18;45.85;98740.02;1670500;86;21014;-91
2022/07/10 11:01:28;;;;;;;4.05;1.92;;;;;;;24.02;46.12;98744.00;1667942;86;21014;-90
2022/07/10 11:04:17;;;;;;;4.55;1.85;;;;;;;23.98;46.43;98745.23;1675128;86;21010;-90
2022/07/10 11:06:49;;;;;;;5.90;2.58;;;;;;;23.87;45.81;98738.67;1676066;86;21026;-89
2022/07/10 11:09:33;;;;;;;4.78;1.85;;;;;;;23.84;45.58;98742.94;1657664;86;21046;-90
2022/07/10 11:12:06;;;;;;;3.72;2.10;;;;;;;23.77;45.61;98740.41;1667359;86;20990;-90
2022/07/10 11:14:36;;;;;;;3.40;1.80;;;;;;;23.67;45.40;98737.69;1687900;81;21050;-87
2022/07/10 11:17:04;;;;;;;5.00;2.10;;;;;;;23.57;45.46;98746.91;1664373;83;21011;-89
2022/07/10 11:19:33;;;;;;;3.25;1.75;;;;;;;23.47;46.07;98744.69;1668900;83;21007;-88
2022/07/10 11:22:30;;;;;;;6.72;1.87;;;;;;;23.38;45.93;98752.94;1669238;83;20995;-89
2022/07/10 11:25:28;;;;;;;5.08;2.02;;;;;;;23.24;45.43;98745.30;1669798;86;21003;-89
2022/07/10 11:28:10;;;;;;;6.47;1.77;;;;;;;22.99;44.85;98755.72;1662649;86;21063;-89
2022/07/10 11:30:55;;;;;;;2.37;1.40;;;;;;;22.64;45.59;98763.38;1657946;86;21066;-89
2022/07/10 11:33:22;;;;;;;4.20;1.90;;;;;;;22.39;45.40;98764.02;1664376;85;21018;-89
2022/07/10 11:35:53;;;;;;;4.37;2.10;;;;;;;22.26;45.85;98775.20;1671050;86;20983;-89
2022/07/10 11:38:26;;;;;;;3.80;1.85;;;;;;;;;;1677552;85;20963;-91
2022/07/10 11:40:56;;;;;;;3.92;2.00;;;;;;;21.97;47.23;98780.95;1673458;85;21011;-91
2022/07/10 11:43:26;;;;;;;3.87;1.90;;;;;;;21.92;48.33;98779.61;1675091;84;20982;-89
2022/07/10 11:45:59;;;;;;;5.08;2.10;;;;;;;21.90;52.54;98770.95;1676511;85;20999;-90
2022/07/10 11:48:23;;;;;;;5.47;2.10;;;;;;;21.91;54.71;98770.00;1663418;86;21027;-90
2022/07/10 11:50:50;;;;;;;3.90;2.37;;;;;;;21.91;54.14;98761.58;1627793;88;21011;-91